Time;durP1;ratioP1;P1;durP2;ratioP2;P2;SDS_P1;SDS_P2;PMS_P1;PMS_P2;Temp;Humidity;BMP_temperature;BMP_pressure;BME280_temperature;BME280_humidity;BME280_pressure;Samples;Min_cycle;Max_cycle;Signal;HPM_P1;HPM_P2
2021/10/11 00:00:37;;;;;;;24.77;13.02;;;;;;;;;;5074989;28;20107;-51
2021/10/11 00:03:03;;;;;;;25.02;12.50;;;;;;;;;;5075199;28;20029;-50
2021/10/11 00:05:29;;;;;;;22.67;11.55;;;;;;;;;;5073959;28;20105;-50
2021/10/11 00:07:55;;;;;;;24.58;12.52;;;;;;;;;;5074832;28;20108;-49
2021/10/11 00:10:21;;;;;;;24.95;11.27;;;;;;;;;;5073384;28;20028;-49
2021/10/11 00:12:48;;;;;;;26.90;12.05;;;;;;;;;;5075157;28;20074;-52
2021/10/11 00:15:14;;;;;;;23.20;11.15;;;;;;;;;;5074308;28;20047;-49
2021/10/11 00:17:40;;;;;;;21.67;10.88;;;;;;;;;;5075380;28;20063;-51
2021/10/11 00:20:06;;;;;;;19.90;10.05;;;;;;;;;;5074628;28;20422;-49
2021/10/11 00:22:32;;;;;;;20.27;10.80;;;;;;;;;;5074488;28;20028;-48
2021/10/11 00:24:58;;;;;;;21.02;9.93;;;;;;;;;;5074161;28;20055;-49
2021/10/11 00:27:24;;;;;;;17.92;9.77;;;;;;;;;;5073361;28;20384;-50
2021/10/11 00:29:50;;;;;;;16.98;8.50;;;;;;;;;;5073787;28;20126;-49
2021/10/11 00:32:16;;;;;;;17.80;8.93;;;;;;;;;;5073026;28;20104;-49
2021/10/11 00:34:43;;;;;;;21.98;9.40;;;;;;;;;;5074170;28;20044;-50
2021/10/11 00:37:09;;;;;;;16.58;8.65;;;;;;;;;;5074825;28;20415;-51
2021/10/11 00:39:35;;;;;;;18.02;9.50;;;;;;;;;;5072816;28;20111;-50
2021/10/11 00:42:01;;;;;;;17.15;8.95;;;;;;;;;;5073989;28;20743;-49
2021/10/11 00:44:27;;;;;;;16.75;8.63;;;;;;;;;;5072974;28;20020;-51
2021/10/11 00:46:53;;;;;;;15.98;8.55;;;;;;;;;;5073636;28;20040;-50
2021/10/11 00:49:19;;;;;;;15.77;8.38;;;;;;;;;;5074900;28;20339;-49
2021/10/11 00:51:45;;;;;;;18.55;8.55;;;;;;;;;;5074237;28;20051;-51
2021/10/11 00:54:11;;;;;;;16.77;8.20;;;;;;;;;;5069173;28;20078;-49
2021/10/11 00:56:37;;;;;;;14.73;8.90;;;;;;;;;;5069388;28;20034;-49
2021/10/11 00:59:03;;;;;;;13.27;8.07;;;;;;;;;;5074023;28;20142;-49
2021/10/11 01:01:29;;;;;;;18.73;8.90;;;;;;;;;;5071777;28;20025;-52
2021/10/11 01:03:55;;;;;;;19.90;9.48;;;;;;;;;;5063263;28;20029;-52
2021/10/11 01:06:21;;;;;;;16.70;9.27;;;;;;;;;;5073962;28;20350;-52
2021/10/11 01:08:47;;;;;;;17.30;9.68;;;;;;;;;;5065576;28;20032;-53
2021/10/11 01:11:13;;;;;;;15.63;8.45;;;;;;;;;;5068532;28;20029;-50
2021/10/11 01:13:39;;;;;;;18.20;8.48;;;;;;;;;;5078954;28;20035;-53
2021/10/11 01:16:05;;;;;;;22.27;10.25;;;;;;;;;;5066697;28;20445;-50
2021/10/11 01:18:31;;;;;;;24.42;10.68;;;;;;;;;;5072553;28;20206;-50
2021/10/11 01:20:57;;;;;;;21.75;10.48;;;;;;;;;;5074016;28;20024;-50
2021/10/11 01:23:25;;;;;;;27.20;11.65;;;;;;;;;;5073757;28;20472;-51
2021/10/11 01:25:52;;;;;;;26.08;11.32;;;;;;;;;;5069604;28;20021;-50
2021/10/11 01:28:18;;;;;;;25.40;11.32;;;;;;;;;;5066286;28;20021;-50
2021/10/11 01:30:44;;;;;;;23.85;11.85;;;;;;;;;;5073134;28;20028;-50
2021/10/11 01:33:10;;;;;;;17.73;9.30;;;;;;;;;;5060371;28;20121;-50
2021/10/11 01:35:36;;;;;;;21.08;10.05;;;;;;;;;;5071215;28;20036;-54
2021/10/11 01:38:03;;;;;;;22.27;9.00;;;;;;;;;;5073049;28;20021;-50
2021/10/11 01:40:29;;;;;;;16.35;8.52;;;;;;;;;;5073222;28;20132;-51
2021/10/11 01:42:55;;;;;;;14.77;8.15;;;;;;;;;;5072572;28;20040;-50
2021/10/11 01:45:21;;;;;;;16.85;8.27;;;;;;;;;;5064851;28;20500;-50
2021/10/11 01:47:47;;;;;;;17.05;8.32;;;;;;;;;;5071404;28;20464;-51
2021/10/11 01:50:13;;;;;;;14.25;7.55;;;;;;;;;;5069830;28;20060;-51
2021/10/11 01:52:40;;;;;;;16.77;7.65;;;;;;;;;;5072606;28;20124;-53
2021/10/11 01:55:06;;;;;;;17.02;8.77;;;;;;;;;;5071651;28;20468;-51
2021/10/11 01:57:32;;;;;;;13.60;7.72;;;;;;;;;;5066808;28;20357;-51
2021/10/11 01:59:58;;;;;;;18.10;8.32;;;;;;;;;;5068575;28;20099;-50
2021/10/11 02:02:24;;;;;;;15.98;8.38;;;;;;;;;;5066641;28;20035;-50
2021/10/11 02:04:51;;;;;;;19.38;8.90;;;;;;;;;;5070169;28;20020;-49
2021/10/11 02:07:17;;;;;;;18.20;8.68;;;;;;;;;;5070397;28;20048;-52
2021/10/11 02:09:43;;;;;;;13.20;7.45;;;;;;;;;;5072103;28;20016;-50
2021/10/11 02:12:08;;;;;;;14.45;8.10;;;;;;;;;;5072960;28;20037;-53
2021/10/11 02:14:34;;;;;;;14.30;7.60;;;;;;;;;;5067485;28;20025;-50
2021/10/11 02:17:00;;;;;;;15.07;8.00;;;;;;;;;;5071545;28;20040;-50
2021/10/11 02:19:26;;;;;;;16.15;7.90;;;;;;;;;;5078517;28;20051;-55
2021/10/11 02:21:52;;;;;;;17.77;7.68;;;;;;;;;;5071268;28;20048;-55
2021/10/11 02:24:18;;;;;;;16.98;8.10;;;;;;;;;;5072752;28;20079;-52
2021/10/11 02:26:44;;;;;;;16.98;9.07;;;;;;;;;;5072447;28;20041;-50
2021/10/11 02:29:10;;;;;;;21.50;9.05;;;;;;;;;;5072490;28;20040;-50
2021/10/11 02:31:36;;;;;;;17.70;8.82;;;;;;;;;;5067641;28;20032;-52
2021/10/11 02:34:02;;;;;;;17.02;8.48;;;;;;;;;;5072582;28;20075;-50
2021/10/11 02:36:28;;;;;;;16.35;7.55;;;;;;;;;;5068597;28;20021;-51
2021/10/11 02:38:54;;;;;;;14.90;8.13;;;;;;;;;;5069091;28;20036;-51
2021/10/11 02:41:21;;;;;;;17.80;8.52;;;;;;;;;;5062179;28;20360;-53
2021/10/11 02:43:48;;;;;;;17.17;8.05;;;;;;;;;;5064790;28;20032;-50
2021/10/11 02:46:14;;;;;;;14.75;8.32;;;;;;;;;;5065494;28;20083;-53
2021/10/11 02:48:40;;;;;;;16.38;8.77;;;;;;;;;;5069944;28;20043;-53
2021/10/11 02:51:06;;;;;;;14.68;8.80;;;;;;;;;;5071842;28;20040;-53
2021/10/11 02:53:32;;;;;;;19.75;8.40;;;;;;;;;;5062628;28;20032;-52
2021/10/11 02:55:58;;;;;;;17.10;8.40;;;;;;;;;;5070918;28;20032;-50
2021/10/11 02:58:24;;;;;;;17.48;8.65;;;;;;;;;;5072037;28;20067;-51
2021/10/11 03:00:50;;;;;;;18.08;8.73;;;;;;;;;;5068992;28;20043;-50
2021/10/11 03:03:16;;;;;;;18.02;8.90;;;;;;;;;;5071099;28;20027;-52
2021/10/11 03:05:42;;;;;;;18.05;9.15;;;;;;;;;;5068307;28;20028;-50
2021/10/11 03:08:08;;;;;;;17.05;8.35;;;;;;;;;;5070594;28;20035;-50
2021/10/11 03:10:34;;;;;;;20.63;9.68;;;;;;;;;;5067785;28;20042;-50
2021/10/11 03:13:00;;;;;;;17.35;9.00;;;;;;;;;;5070081;28;20029;-50
2021/10/11 03:15:26;;;;;;;16.52;8.45;;;;;;;;;;5062828;28;20028;-53
2021/10/11 03:17:52;;;;;;;15.75;8.27;;;;;;;;;;5069934;28;20470;-54
2021/10/11 03:20:17;;;;;;;14.52;7.75;;;;;;;;;;5068563;28;20052;-53
2021/10/11 03:22:43;;;;;;;14.15;7.65;;;;;;;;;;5065429;28;20497;-51
2021/10/11 03:25:09;;;;;;;17.25;8.88;;;;;;;;;;5066397;28;20029;-51
2021/10/11 03:27:35;;;;;;;16.65;8.65;;;;;;;;;;5069269;28;20041;-51
2021/10/11 03:30:01;;;;;;;16.08;8.27;;;;;;;;;;5062533;28;20020;-53
2021/10/11 03:32:27;;;;;;;15.23;7.90;;;;;;;;;;5069368;28;20165;-50
2021/10/11 03:34:53;;;;;;;17.30;8.48;;;;;;;;;;5070773;28;20033;-51
2021/10/11 03:37:19;;;;;;;15.77;7.60;;;;;;;;;;5071286;28;20039;-50
2021/10/11 03:39:45;;;;;;;15.32;8.55;;;;;;;;;;5068911;28;20079;-54
2021/10/11 03:42:11;;;;;;;14.15;8.40;;;;;;;;;;5067691;28;20029;-50
2021/10/11 03:44:37;;;;;;;16.83;8.25;;;;;;;;;;5058624;28;20025;-50
2021/10/11 03:47:03;;;;;;;15.18;7.32;;;;;;;;;;5067930;28;20028;-50
2021/10/11 03:49:29;;;;;;;12.95;7.78;;;;;;;;;;5071733;28;20127;-51
2021/10/11 03:51:55;;;;;;;16.27;7.85;;;;;;;;;;5071547;28;20056;-52
2021/10/11 03:54:21;;;;;;;14.82;7.97;;;;;;;;;;5064474;28;20040;-51
2021/10/11 03:56:47;;;;;;;14.68;8.60;;;;;;;;;;5071030;28;20024;-54
2021/10/11 03:59:13;;;;;;;14.43;8.10;;;;;;;;;;5067453;28;20032;-53
2021/10/11 04:01:39;;;;;;;15.23;8.13;;;;;;;;;;5070890;28;20052;-53
2021/10/11 04:04:06;;;;;;;15.55;8.02;;;;;;;;;;5067365;28;20025;-51
2021/10/11 04:06:33;;;;;;;16.05;8.00;;;;;;;;;;5068635;28;20090;-50
2021/10/11 04:09:00;;;;;;;17.30;8.38;;;;;;;;;;5066137;28;20024;-52
2021/10/11 04:11:26;;;;;;;15.73;7.95;;;;;;;;;;5068869;28;20053;-51
2021/10/11 04:13:52;;;;;;;16.23;8.02;;;;;;;;;;5063837;28;20046;-51
2021/10/11 04:16:18;;;;;;;15.13;7.53;;;;;;;;;;5073352;28;20039;-50
2021/10/11 04:18:45;;;;;;;14.75;7.78;;;;;;;;;;5065321;28;20132;-51
2021/10/11 04:21:11;;;;;;;16.92;8.50;;;;;;;;;;5060439;28;20040;-50
2021/10/11 04:23:37;;;;;;;15.38;7.85;;;;;;;;;;5074770;28;20033;-54
2021/10/11 04:26:03;;;;;;;17.95;8.13;;;;;;;;;;5074677;28;20039;-53
2021/10/11 04:28:29;;;;;;;16.67;7.85;;;;;;;;;;5074821;28;20028;-55
2021/10/11 04:30:55;;;;;;;20.63;8.18;;;;;;;;;;5069797;28;20031;-51
2021/10/11 04:33:21;;;;;;;17.25;8.55;;;;;;;;;;5065569;28;20384;-51
2021/10/11 04:35:47;;;;;;;21.63;9.85;;;;;;;;;;5071317;28;20120;-51
2021/10/11 04:38:13;;;;;;;18.30;8.68;;;;;;;;;;5074192;28;20107;-51
2021/10/11 04:40:39;;;;;;;22.85;9.75;;;;;;;;;;5073416;28;20107;-50
2021/10/11 04:43:05;;;;;;;18.40;9.52;;;;;;;;;;5070234;28;20100;-52
2021/10/11 04:45:33;;;;;;;17.42;8.38;;;;;;;;;;5067959;28;20023;-50
2021/10/11 04:48:00;;;;;;;17.88;8.57;;;;;;;;;;5067123;28;20399;-51
2021/10/11 04:50:27;;;;;;;14.15;8.30;;;;;;;;;;5074470;28;20021;-51
2021/10/11 04:52:53;;;;;;;18.20;7.93;;;;;;;;;;5067605;28;20029;-51
2021/10/11 04:55:19;;;;;;;15.82;7.78;;;;;;;;;;5068277;28;20439;-51
2021/10/11 04:57:45;;;;;;;14.45;7.38;;;;;;;;;;5072240;28;20036;-50
2021/10/11 05:00:12;;;;;;;18.00;9.07;;;;;;;;;;5071390;28;20025;-55
2021/10/11 05:02:38;;;;;;;18.52;9.32;;;;;;;;;;5062817;28;20052;-51
2021/10/11 05:05:04;;;;;;;17.10;8.85;;;;;;;;;;5071983;28;20031;-50
2021/10/11 05:07:30;;;;;;;18.35;8.43;;;;;;;;;;5069456;28;20039;-51
2021/10/11 05:09:56;;;;;;;23.52;8.65;;;;;;;;;;5072054;28;20028;-52
2021/10/11 05:12:22;;;;;;;16.10;8.57;;;;;;;;;;5071535;28;20036;-52
2021/10/11 05:14:48;;;;;;;16.02;8.40;;;;;;;;;;5073915;28;20028;-51
2021/10/11 05:17:14;;;;;;;14.30;8.15;;;;;;;;;;5071468;28;20802;-50
2021/10/11 05:19:40;;;;;;;14.27;7.35;;;;;;;;;;5071785;28;20040;-51
2021/10/11 05:22:06;;;;;;;15.43;7.53;;;;;;;;;;5073208;28;20032;-50
2021/10/11 05:24:32;;;;;;;19.35;9.00;;;;;;;;;;5069729;28;20078;-52
2021/10/11 05:26:58;;;;;;;18.67;8.52;;;;;;;;;;5063367;28;20027;-51
2021/10/11 05:29:24;;;;;;;16.95;8.45;;;;;;;;;;5065301;28;20077;-53
2021/10/11 05:31:51;;;;;;;15.13;8.23;;;;;;;;;;5068228;28;20025;-51
2021/10/11 05:34:17;;;;;;;16.05;8.13;;;;;;;;;;5064263;28;20431;-52
2021/10/11 05:36:43;;;;;;;13.45;7.93;;;;;;;;;;5066921;28;20032;-52
2021/10/11 05:39:09;;;;;;;16.27;8.07;;;;;;;;;;5070757;28;20036;-50
2021/10/11 05:41:35;;;;;;;13.85;7.72;;;;;;;;;;5068805;28;20119;-50
2021/10/11 05:44:02;;;;;;;18.23;8.45;;;;;;;;;;5072465;28;20158;-50
2021/10/11 05:46:28;;;;;;;15.75;7.88;;;;;;;;;;5072338;28;20029;-52
2021/10/11 05:48:54;;;;;;;16.75;7.70;;;;;;;;;;5073438;28;20025;-50
2021/10/11 05:51:20;;;;;;;15.05;7.38;;;;;;;;;;5067301;28;20036;-51
2021/10/11 05:53:45;;;;;;;15.57;7.93;;;;;;;;;;5071124;28;20040;-50
2021/10/11 05:56:11;;;;;;;16.60;9.27;;;;;;;;;;5069403;28;20078;-50
2021/10/11 05:58:38;;;;;;;13.82;7.15;;;;;;;;;;5069624;28;20032;-50
2021/10/11 06:01:04;;;;;;;16.85;8.10;;;;;;;;;;5068868;28;20027;-50
2021/10/11 06:03:30;;;;;;;15.43;8.43;;;;;;;;;;5070016;28;20036;-52
2021/10/11 06:05:56;;;;;;;13.02;8.00;;;;;;;;;;5071877;28;20032;-54
2021/10/11 06:08:22;;;;;;;14.38;8.30;;;;;;;;;;5063883;28;20028;-52
2021/10/11 06:10:48;;;;;;;20.10;8.95;;;;;;;;;;5060744;28;20404;-52
2021/10/11 06:13:14;;;;;;;21.08;9.02;;;;;;;;;;5061074;28;20036;-50
2021/10/11 06:15:40;;;;;;;17.38;8.48;;;;;;;;;;5066734;28;20039;-51
2021/10/11 06:18:06;;;;;;;15.70;7.70;;;;;;;;;;5063446;28;20488;-55
2021/10/11 06:20:32;;;;;;;18.20;8.40;;;;;;;;;;5060181;28;20572;-52
2021/10/11 06:22:58;;;;;;;15.82;8.82;;;;;;;;;;5063619;28;20024;-50
2021/10/11 06:25:24;;;;;;;16.80;8.75;;;;;;;;;;5064163;28;20033;-52
2021/10/11 06:27:50;;;;;;;20.83;9.25;;;;;;;;;;5067055;28;20032;-52
2021/10/11 06:30:16;;;;;;;17.80;9.05;;;;;;;;;;5067991;28;20044;-50
2021/10/11 06:32:42;;;;;;;19.48;8.93;;;;;;;;;;5064635;28;20040;-51
2021/10/11 06:35:08;;;;;;;18.70;9.10;;;;;;;;;;5068368;28;20024;-51
2021/10/11 06:37:34;;;;;;;17.08;8.30;;;;;;;;;;5065690;28;20021;-50
2021/10/11 06:40:00;;;;;;;18.88;9.75;;;;;;;;;;5066431;28;20032;-50
2021/10/11 06:42:26;;;;;;;16.60;8.63;;;;;;;;;;5069583;28;20037;-50
2021/10/11 06:44:52;;;;;;;18.52;9.00;;;;;;;;;;5060705;28;20480;-50
2021/10/11 06:47:18;;;;;;;22.13;10.07;;;;;;;;;;5064794;28;20028;-51
2021/10/11 06:49:46;;;;;;;22.83;10.05;;;;;;;;;;5065403;28;20099;-50
2021/10/11 06:52:12;;;;;;;23.67;10.18;;;;;;;;;;5074380;28;20066;-51
2021/10/11 06:54:38;;;;;;;17.55;9.30;;;;;;;;;;5069580;28;20055;-51
2021/10/11 06:57:04;;;;;;;18.75;9.88;;;;;;;;;;5069727;28;20032;-51
2021/10/11 06:59:30;;;;;;;23.85;10.55;;;;;;;;;;5069082;28;20028;-50
2021/10/11 07:01:56;;;;;;;20.20;9.73;;;;;;;;;;5063052;28;20029;-50
2021/10/11 07:04:22;;;;;;;21.92;10.75;;;;;;;;;;5069485;28;20024;-51
2021/10/11 07:06:49;;;;;;;26.30;11.40;;;;;;;;;;5069173;28;20020;-51
2021/10/11 07:09:15;;;;;;;19.90;10.68;;;;;;;;;;5067617;28;20040;-50
2021/10/11 07:11:41;;;;;;;21.38;10.18;;;;;;;;;;5068561;28;20107;-52
2021/10/11 07:14:07;;;;;;;21.05;10.23;;;;;;;;;;5066287;28;20025;-50
2021/10/11 07:16:33;;;;;;;19.70;10.23;;;;;;;;;;5065058;28;20028;-52
2021/10/11 07:18:59;;;;;;;22.40;10.98;;;;;;;;;;5068424;28;20052;-50
2021/10/11 07:21:25;;;;;;;21.70;12.02;;;;;;;;;;5065571;28;20029;-51
2021/10/11 07:23:51;;;;;;;20.52;10.40;;;;;;;;;;5065824;28;20150;-50
2021/10/11 07:26:17;;;;;;;24.05;12.25;;;;;;;;;;5064574;28;20740;-51
2021/10/11 07:28:43;;;;;;;26.15;11.77;;;;;;;;;;5068074;28;20032;-50
2021/10/11 07:31:09;;;;;;;23.52;11.30;;;;;;;;;;5078903;28;20364;-52
2021/10/11 07:33:35;;;;;;;18.90;10.32;;;;;;;;;;5069929;28;20066;-52
2021/10/11 07:36:01;;;;;;;25.42;11.50;;;;;;;;;;5071156;28;20422;-51
2021/10/11 07:38:28;;;;;;;23.65;12.07;;;;;;;;;;5065584;28;20052;-50
2021/10/11 07:40:54;;;;;;;23.55;11.55;;;;;;;;;;5062681;28;20105;-50
2021/10/11 07:43:20;;;;;;;21.50;11.27;;;;;;;;;;5070410;28;20047;-50
2021/10/11 07:45:46;;;;;;;24.45;11.25;;;;;;;;;;5060279;28;20024;-50
2021/10/11 07:48:12;;;;;;;24.50;11.65;;;;;;;;;;5070425;28;20052;-50
2021/10/11 07:50:38;;;;;;;23.35;10.95;;;;;;;;;;5067493;28;20029;-52
2021/10/11 07:53:04;;;;;;;21.98;11.55;;;;;;;;;;5060707;28;20465;-53
2021/10/11 07:55:30;;;;;;;24.45;11.98;;;;;;;;;;5062190;28;20048;-51
2021/10/11 07:57:56;;;;;;;27.08;12.45;;;;;;;;;;5066791;28;20040;-50
2021/10/11 08:00:22;;;;;;;24.13;11.48;;;;;;;;;;5068237;28;20037;-52
2021/10/11 08:02:48;;;;;;;25.05;11.73;;;;;;;;;;5063016;28;20071;-50
2021/10/11 08:05:15;;;;;;;22.50;11.23;;;;;;;;;;5067161;28;20021;-53
2021/10/11 08:07:43;;;;;;;27.13;13.13;;;;;;;;;;5069954;28;20128;-51
2021/10/11 08:10:10;;;;;;;30.25;13.23;;;;;;;;;;5065032;28;20044;-50
2021/10/11 08:12:36;;;;;;;30.08;13.20;;;;;;;;;;5072887;28;20107;-51
2021/10/11 08:15:02;;;;;;;27.75;12.57;;;;;;;;;;5066050;28;20077;-50
2021/10/11 08:17:28;;;;;;;29.27;14.02;;;;;;;;;;5073166;28;20040;-50
2021/10/11 08:19:54;;;;;;;28.33;12.85;;;;;;;;;;5071084;28;20045;-52
2021/10/11 08:22:21;;;;;;;28.88;12.77;;;;;;;;;;5062830;28;20084;-52
2021/10/11 08:24:47;;;;;;;30.33;13.60;;;;;;;;;;5077353;28;20052;-51
2021/10/11 08:27:17;;;;;;;26.83;14.13;;;;;;;;;;5072362;28;20145;-50
2021/10/11 08:29:56;;;;;;;29.52;13.75;;;;;;;;;;5068395;28;20412;-51
2021/10/11 08:32:24;;;;;;;25.30;12.57;;;;;;;;;;5063652;28;20424;-50
2021/10/11 08:34:51;;;;;;;30.83;14.00;;;;;;;;;;5071604;28;20043;-50
2021/10/11 08:37:17;;;;;;;29.55;14.10;;;;;;;;;;5070766;28;20380;-53
2021/10/11 08:39:43;;;;;;;29.65;14.00;;;;;;;;;;5069545;28;20037;-50
2021/10/11 08:42:14;;;;;;;28.27;13.40;;;;;;;;;;5069360;28;20029;-51
2021/10/11 08:44:40;;;;;;;30.42;13.77;;;;;;;;;;5068988;28;20388;-53
2021/10/11 08:47:06;;;;;;;32.67;14.40;;;;;;;;;;5057915;28;20032;-50
2021/10/11 08:49:32;;;;;;;30.92;13.70;;;;;;;;;;5061128;28;20082;-50
2021/10/11 08:51:58;;;;;;;28.15;13.98;;;;;;;;;;5061281;28;20081;-50
2021/10/11 08:54:24;;;;;;;29.70;14.00;;;;;;;;;;5071515;28;20029;-54
2021/10/11 08:56:50;;;;;;;31.42;13.55;;;;;;;;;;5075202;28;20032;-51
2021/10/11 08:59:28;;;;;;;26.73;14.07;;;;;;;;;;5067518;28;20067;-51
2021/10/11 09:02:04;;;;;;;25.90;12.98;;;;;;;;;;5068322;28;20024;-50
2021/10/11 09:04:30;;;;;;;30.40;14.05;;;;;;;;;;5061389;28;20036;-54
2021/10/11 09:07:06;;;;;;;26.40;12.70;;;;;;;;;;5062885;28;20029;-52
2021/10/11 09:09:33;;;;;;;28.98;13.57;;;;;;;;;;5066027;28;20035;-50
2021/10/11 09:11:59;;;;;;;28.05;12.90;;;;;;;;;;5067416;28;20428;-51
2021/10/11 09:14:26;;;;;;;25.55;12.20;;;;;;;;;;5073151;28;20024;-50
2021/10/11 09:17:03;;;;;;;23.00;11.25;;;;;;;;;;5075422;28;20080;-50
2021/10/11 09:19:34;;;;;;;33.03;13.23;;;;;;;;;;5075806;28;20044;-50
2021/10/11 09:22:01;;;;;;;23.73;10.73;;;;;;;;;;5069861;28;20032;-52
2021/10/11 09:24:27;;;;;;;22.70;11.07;;;;;;;;;;5074327;28;20113;-51
2021/10/11 09:26:55;;;;;;;26.13;10.73;;;;;;;;;;5069334;28;20029;-51
2021/10/11 09:29:31;;;;;;;25.13;11.35;;;;;;;;;;5060954;28;20455;-51
2021/10/11 09:32:01;;;;;;;27.65;11.23;;;;;;;;;;5064738;28;20111;-51
2021/10/11 09:34:27;;;;;;;28.65;11.38;;;;;;;;;;5066211;28;20047;-56
2021/10/11 09:36:57;;;;;;;24.02;10.40;;;;;;;;;;5069933;28;20024;-52
2021/10/11 09:39:23;;;;;;;27.77;10.82;;;;;;;;;;5074221;28;20029;-56
2021/10/11 09:41:52;;;;;;;25.27;11.00;;;;;;;;;;5066862;28;20376;-52
2021/10/11 09:44:19;;;;;;;26.40;11.45;;;;;;;;;;5070381;28;20071;-50
2021/10/11 09:46:46;;;;;;;22.67;10.95;;;;;;;;;;5072957;28;20024;-53
2021/10/11 09:49:12;;;;;;;20.23;10.00;;;;;;;;;;5074155;28;20031;-52
2021/10/11 09:51:38;;;;;;;22.95;10.55;;;;;;;;;;5066870;28;20028;-52
2021/10/11 09:54:04;;;;;;;24.48;9.88;;;;;;;;;;5069551;28;20132;-51
2021/10/11 09:56:30;;;;;;;20.35;9.27;;;;;;;;;;5066880;28;20030;-51
2021/10/11 09:58:56;;;;;;;23.40;9.10;;;;;;;;;;5072646;28;20029;-54
2021/10/11 10:01:23;;;;;;;18.40;9.48;;;;;;;;;;5074384;28;20098;-57
2021/10/11 10:03:50;;;;;;;20.70;9.18;;;;;;;;;;5069028;28;20601;-51
2021/10/11 10:06:16;;;;;;;22.80;10.15;;;;;;;;;;5071446;28;20048;-51
2021/10/11 10:08:44;;;;;;;18.52;8.25;;;;;;;;;;5068090;28;20024;-53
2021/10/11 10:11:11;;;;;;;19.73;8.35;;;;;;;;;;5068161;28;20488;-54
2021/10/11 10:13:49;;;;;;;14.80;7.68;;;;;;;;;;5067850;28;20043;-50
2021/10/11 10:16:16;;;;;;;21.58;8.43;;;;;;;;;;5066761;28;20028;-51
2021/10/11 10:18:44;;;;;;;18.00;7.93;;;;;;;;;;5061486;28;20048;-52
2021/10/11 10:21:10;;;;;;;21.42;9.07;;;;;;;;;;5070031;28;20497;-51
2021/10/11 10:23:37;;;;;;;14.07;6.38;;;;;;;;;;5068403;28;20047;-53
2021/10/11 10:26:11;;;;;;;16.63;7.05;;;;;;;;;;5065268;28;20131;-51
2021/10/11 10:28:47;;;;;;;18.05;7.00;;;;;;;;;;5069867;28;20132;-53
2021/10/11 10:31:34;;;;;;;17.35;6.85;;;;;;;;;;5069337;28;20044;-52
2021/10/11 10:34:01;;;;;;;14.10;6.20;;;;;;;;;;5071267;28;20032;-52
2021/10/11 10:36:30;;;;;;;18.15;6.43;;;;;;;;;;5075579;28;20387;-50
2021/10/11 10:39:05;;;;;;;11.68;6.22;;;;;;;;;;5069990;28;20025;-52
2021/10/11 10:41:31;;;;;;;15.60;6.22;;;;;;;;;;5066227;28;20346;-51
2021/10/11 10:43:57;;;;;;;11.80;5.78;;;;;;;;;;5061994;28;20029;-52
2021/10/11 10:46:23;;;;;;;16.00;6.65;;;;;;;;;;5058186;28;20029;-51
2021/10/11 10:48:51;;;;;;;16.02;6.85;;;;;;;;;;5075438;28;20074;-56
2021/10/11 10:51:17;;;;;;;15.23;6.00;;;;;;;;;;5065658;28;20060;-52
2021/10/11 10:53:53;;;;;;;15.45;5.72;;;;;;;;;;5059822;28;20524;-51
2021/10/11 10:56:20;;;;;;;14.63;5.53;;;;;;;;;;5073128;28;20031;-52
2021/10/11 10:58:47;;;;;;;15.68;5.68;;;;;;;;;;5065424;28;20112;-51
2021/10/11 11:01:13;;;;;;;10.48;5.80;;;;;;;;;;5068410;28;20546;-52
2021/10/11 11:03:39;;;;;;;12.75;5.85;;;;;;;;;;5067884;28;20017;-52
2021/10/11 11:06:06;;;;;;;13.05;5.90;;;;;;;;;;5063835;28;20024;-50
2021/10/11 11:08:32;;;;;;;11.32;5.55;;;;;;;;;;5067234;28;20411;-52
2021/10/11 11:11:02;;;;;;;11.55;5.50;;;;;;;;;;5069111;28;20652;-53
2021/10/11 11:13:28;;;;;;;10.25;4.93;;;;;;;;;;5070462;28;20104;-50
2021/10/11 11:15:54;;;;;;;11.20;5.18;;;;;;;;;;5059506;28;20033;-53
2021/10/11 11:18:21;;;;;;;10.60;4.78;;;;;;;;;;5071497;28;20024;-51
2021/10/11 11:20:48;;;;;;;11.98;4.47;;;;;;;;;;5067410;28;20086;-54
2021/10/11 11:23:16;;;;;;;10.45;4.68;;;;;;;;;;5070253;28;20035;-51
2021/10/11 11:25:43;;;;;;;12.63;5.07;;;;;;;;;;5059162;28;20021;-52
2021/10/11 11:28:10;;;;;;;11.93;4.50;;;;;;;;;;5068389;28;20033;-53
2021/10/11 11:30:36;;;;;;;9.27;3.45;;;;;;;;;;5067459;28;20539;-55
2021/10/11 11:33:04;;;;;;;8.48;3.42;;;;;;;;;;5058539;28;20021;-52
2021/10/11 11:35:31;;;;;;;8.75;3.53;;;;;;;;;;5065360;28;20111;-52
2021/10/11 11:37:59;;;;;;;6.50;3.17;;;;;;;;;;5062578;28;20580;-52
2021/10/11 11:40:26;;;;;;;9.95;4.10;;;;;;;;;;5058569;28;20025;-52
2021/10/11 11:42:53;;;;;;;10.32;4.68;;;;;;;;;;5070965;28;20047;-51
2021/10/11 11:45:20;;;;;;;7.05;3.47;;;;;;;;;;5065130;28;20027;-53
2021/10/11 11:47:46;;;;;;;8.93;3.40;;;;;;;;;;5058810;28;20063;-54
2021/10/11 11:50:16;;;;;;;8.95;3.15;;;;;;;;;;5062903;28;20099;-54
2021/10/11 11:52:42;;;;;;;5.32;2.65;;;;;;;;;;5066031;28;20051;-55
2021/10/11 11:55:08;;;;;;;7.10;2.55;;;;;;;;;;5067808;28;20020;-54
2021/10/11 11:57:44;;;;;;;7.72;2.80;;;;;;;;;;5071213;28;20111;-52
2021/10/11 12:00:11;;;;;;;8.85;2.88;;;;;;;;;;5060282;28;20037;-51
2021/10/11 12:02:37;;;;;;;9.85;3.75;;;;;;;;;;5067985;28;20036;-52
2021/10/11 12:05:04;;;;;;;10.00;3.25;;;;;;;;;;5071592;28;20067;-52
2021/10/11 12:07:30;;;;;;;8.82;3.50;;;;;;;;;;5069198;28;20032;-52
2021/10/11 12:09:56;;;;;;;7.75;3.25;;;;;;;;;;5068834;28;20116;-52
2021/10/11 12:12:31;;;;;;;9.48;3.83;;;;;;;;;;5070821;28;20143;-50
2021/10/11 12:14:57;;;;;;;10.70;3.55;;;;;;;;;;5067042;28;20510;-52
2021/10/11 12:17:30;;;;;;;8.70;3.80;;;;;;;;;;5068534;28;20028;-51
2021/10/11 12:20:00;;;;;;;7.38;2.58;;;;;;;;;;5070627;28;20397;-50
2021/10/11 12:22:30;;;;;;;10.32;2.97;;;;;;;;;;5076687;28;20111;-50
2021/10/11 12:25:01;;;;;;;5.13;2.25;;;;;;;;;;5071167;28;20028;-52
2021/10/11 12:27:27;;;;;;;3.58;1.55;;;;;;;;;;5069653;28;20747;-53
2021/10/11 12:29:54;;;;;;;4.50;1.83;;;;;;;;;;5068698;28;20036;-54
2021/10/11 12:32:27;;;;;;;3.42;1.58;;;;;;;;;;5068032;28;20040;-51
2021/10/11 12:34:53;;;;;;;3.85;2.05;;;;;;;;;;5067536;28;20555;-52
2021/10/11 12:37:20;;;;;;;5.45;2.22;;;;;;;;;;5062883;28;20107;-52
2021/10/11 12:39:47;;;;;;;6.43;2.53;;;;;;;;;;5071162;28;20493;-51
2021/10/11 12:42:21;;;;;;;8.25;2.42;;;;;;;;;;5073823;28;20029;-51
2021/10/11 12:44:50;;;;;;;5.05;2.08;;;;;;;;;;5064220;28;20112;-52
2021/10/11 12:47:26;;;;;;;9.25;2.53;;;;;;;;;;5066365;28;20055;-51
2021/10/11 12:49:59;;;;;;;5.47;2.28;;;;;;;;;;5072861;28;20029;-51
2021/10/11 12:52:32;;;;;;;6.10;2.15;;;;;;;;;;5065397;28;20108;-52
2021/10/11 12:55:04;;;;;;;6.38;2.38;;;;;;;;;;5074594;28;20044;-55
2021/10/11 12:57:30;;;;;;;5.93;2.10;;;;;;;;;;5065871;28;20029;-55
2021/10/11 12:59:56;;;;;;;11.30;3.03;;;;;;;;;;5073065;28;20053;-51
2021/10/11 13:02:22;;;;;;;7.47;2.53;;;;;;;;;;5070664;28;20418;-55
2021/10/11 13:04:48;;;;;;;8.02;2.35;;;;;;;;;;5072360;28;20360;-54
2021/10/11 13:07:14;;;;;;;9.48;3.35;;;;;;;;;;5066309;28;20036;-53
2021/10/11 13:09:40;;;;;;;6.38;2.50;;;;;;;;;;5078896;28;20040;-52
2021/10/11 13:12:06;;;;;;;4.40;2.22;;;;;;;;;;5073032;28;20028;-53
2021/10/11 13:14:32;;;;;;;9.35;2.35;;;;;;;;;;5066744;28;20035;-57
2021/10/11 13:16:58;;;;;;;5.18;2.03;;;;;;;;;;5074783;28;20021;-52
2021/10/11 13:19:24;;;;;;;7.22;2.45;;;;;;;;;;5078775;28;20044;-52
2021/10/11 13:21:50;;;;;;;7.78;2.40;;;;;;;;;;5079888;28;20033;-54
2021/10/11 13:24:16;;;;;;;11.77;2.55;;;;;;;;;;5073839;28;20448;-54
2021/10/11 13:26:42;;;;;;;6.47;2.33;;;;;;;;;;5073764;28;20024;-55
2021/10/11 13:32:51;;;;;;;5.25;1.42;;;;;;;;;;5060208;28;20059;-55
2021/10/11 13:35:28;;;;;;;3.80;1.77;;;;;;;;;;5059026;28;20507;-56
2021/10/11 14:26:19;;;;;;;4.35;1.50;;;;;;;;;;5061309;28;20032;-54
2021/10/11 14:26:37;;;;;;;4.25;1.25;;;;;;;;;;5064786;28;20504;-54
2021/10/11 14:29:12;;;;;;;3.92;1.30;;;;;;;;;;5069408;28;20081;-51
2021/10/11 15:54:44;;;;;;;3.65;1.30;;;;;;;;;;5063665;28;20036;-51
2021/10/11 15:57:42;;;;;;;5.68;1.45;;;;;;;;;;5067372;28;20051;-51
2021/10/11 16:00:21;;;;;;;3.10;1.42;;;;;;;;;;5070559;28;20029;-52
2021/10/11 16:02:49;;;;;;;2.97;1.48;;;;;;;;;;5062269;28;20453;-50
2021/10/11 16:05:15;;;;;;;2.50;1.45;;;;;;;;;;5069460;28;20399;-50
2021/10/11 16:07:43;;;;;;;3.95;1.95;;;;;;;;;;5067743;28;20052;-50
2021/10/11 16:10:09;;;;;;;4.93;1.50;;;;;;;;;;5062608;28;20086;-54
2021/10/11 16:12:38;;;;;;;3.95;2.05;;;;;;;;;;5074012;28;20085;-51
2021/10/11 16:15:04;;;;;;;2.88;1.92;;;;;;;;;;5073083;28;20036;-50
2021/10/11 16:17:30;;;;;;;8.50;4.70;;;;;;;;;;5075816;28;20416;-50
2021/10/11 16:19:56;;;;;;;46.95;29.42;;;;;;;;;;5078942;28;20056;-51
2021/10/11 16:22:22;;;;;;;107.07;66.28;;;;;;;;;;5072619;28;20024;-50
2021/10/11 16:24:48;;;;;;;79.20;51.95;;;;;;;;;;5071322;28;20393;-50
2021/10/11 16:27:14;;;;;;;60.50;40.10;;;;;;;;;;5067219;28;20071;-53
2021/10/11 16:29:40;;;;;;;37.00;22.98;;;;;;;;;;5072900;28;20106;-53
2021/10/11 16:32:07;;;;;;;37.17;24.58;;;;;;;;;;5069904;28;20017;-52
2021/10/11 16:34:32;;;;;;;31.35;19.08;;;;;;;;;;5083448;28;20023;-50
2021/10/11 16:36:58;;;;;;;19.05;11.82;;;;;;;;;;5070499;28;20024;-50
2021/10/11 16:39:24;;;;;;;12.95;7.13;;;;;;;;;;5061101;28;20025;-51